Time;durP1;ratioP1;P1;durP2;ratioP2;P2;SDS_P1;SDS_P2;PMS_P1;PMS_P2;Temp;Humidity;BMP_temperature;BMP_pressure;BME280_temperature;BME280_humidity;BME280_pressure;Samples;Min_cycle;Max_cycle;Signal;HPM_P1;HPM_P2
2022/02/20 00:01:37;;;;;;;45.38;13.65;;;-1.10;91.30;;;;;;4369624;28;658569;-70
2022/02/20 00:04:25;;;;;;;54.43;15.07;;;-1.10;91.60;;;;;;4397912;28;658807;-73
2022/02/20 00:07:12;;;;;;;122.27;30.33;;;-1.10;92.30;;;;;;4368181;28;660753;-72
2022/02/20 00:10:00;;;;;;;54.17;15.73;;;-1.10;92.40;;;;;;4381111;28;659705;-73
2022/02/20 00:12:48;;;;;;;56.57;15.27;;;-1.20;92.80;;;;;;4371905;28;659971;-72
2022/02/20 00:15:35;;;;;;;57.15;16.23;;;-1.20;93.40;;;;;;4366543;28;658233;-69
2022/02/20 00:18:24;;;;;;;89.43;21.13;;;-1.30;93.80;;;;;;4381664;28;659058;-72
2022/02/20 00:21:12;;;;;;;66.73;18.73;;;-1.30;93.80;;;;;;4388992;28;659362;-73
2022/02/20 00:24:00;;;;;;;50.13;13.97;;;-1.30;94.40;;;;;;4408398;28;659516;-72
2022/02/20 00:26:47;;;;;;;45.27;13.00;;;-1.30;94.90;;;;;;4392861;28;658875;-73
2022/02/20 00:29:35;;;;;;;49.87;13.93;;;-1.30;95.40;;;;;;4414344;28;659072;-72
2022/02/20 00:32:22;;;;;;;35.80;11.43;;;-1.40;95.50;;;;;;4389697;28;660191;-72
2022/02/20 00:35:11;;;;;;;40.47;11.30;;;-1.40;96.60;;;;;;4408941;28;659076;-72
2022/02/20 00:37:59;;;;;;;39.00;11.23;;;-1.50;97.70;;;;;;4401918;28;659678;-72
2022/02/20 00:40:50;;;;;;;47.73;11.33;;;-1.50;98.60;;;;;;4414040;28;658698;-73
2022/02/20 00:43:38;;;;;;;41.80;12.13;;;-1.50;98.40;;;;;;4364216;28;659565;-72
2022/02/20 00:46:26;;;;;;;40.80;11.57;;;-1.50;98.40;;;;;;4409101;28;658973;-70
2022/02/20 00:49:13;;;;;;;41.40;11.33;;;-1.50;99.00;;;;;;4401958;28;659935;-72
2022/02/20 00:52:02;;;;;;;35.53;10.90;;;-1.50;99.20;;;;;;4371992;28;658412;-71
2022/02/20 00:54:50;;;;;;;34.60;11.73;;;-1.50;98.90;;;;;;4389537;28;659477;-72
2022/02/20 00:57:37;;;;;;;32.13;11.17;;;-1.50;99.10;;;;;;4367831;28;659960;-72
2022/02/20 01:00:25;;;;;;;27.83;9.63;;;-1.50;99.30;;;;;;4384588;28;659643;-72
2022/02/20 01:03:12;;;;;;;34.93;10.20;;;-1.50;99.10;;;;;;4362738;28;658834;-72
2022/02/20 01:05:59;;;;;;;34.63;10.45;;;-1.50;99.70;;;;;;4394092;28;658983;-72
2022/02/20 01:08:49;;;;;;;34.73;9.73;;;-1.50;99.90;;;;;;4391402;28;659344;-72
2022/02/20 01:11:36;;;;;;;35.17;10.53;;;-1.50;99.90;;;;;;4364783;28;657485;-72
2022/02/20 01:14:24;;;;;;;25.60;9.68;;;-1.50;99.90;;;;;;4405107;28;659932;-71
2022/02/20 01:17:11;;;;;;;29.40;10.00;;;-1.50;99.90;;;;;;4387886;28;659163;-72
2022/02/20 01:19:59;;;;;;;35.47;10.90;;;-1.50;99.90;;;;;;4411818;28;659883;-72
2022/02/20 01:22:46;;;;;;;33.13;11.33;;;-1.50;99.90;;;;;;4386618;28;658588;-72
2022/02/20 01:25:35;;;;;;;34.13;10.93;;;-1.50;99.90;;;;;;4409014;28;659950;-71
2022/02/20 01:28:22;;;;;;;30.17;10.17;;;-1.50;99.90;;;;;;4387567;28;660012;-73
2022/02/20 01:31:10;;;;;;;32.17;10.33;;;-1.50;99.90;;;;;;4410526;28;658757;-69
2022/02/20 01:33:58;;;;;;;34.57;10.40;;;-1.50;99.90;;;;;;4411593;28;660678;-73
2022/02/20 01:36:45;;;;;;;29.35;9.85;;;-1.50;99.90;;;;;;4390413;28;658603;-70
2022/02/20 01:39:33;;;;;;;35.53;9.80;;;-1.50;99.90;;;;;;4411478;28;659329;-72
2022/02/20 01:42:22;;;;;;;26.65;9.23;;;-1.50;99.70;;;;;;4398189;28;657348;-71
2022/02/20 01:45:12;;;;;;;38.27;10.07;;;-1.50;99.60;;;;;;4415160;28;658455;-73
2022/02/20 01:48:00;;;;;;;29.67;9.50;;;-1.50;99.40;;;;;;4394206;28;658877;-72
2022/02/20 01:50:47;;;;;;;35.43;10.30;;;-1.50;98.90;;;;;;4394059;28;658056;-73
2022/02/20 01:53:35;;;;;;;36.23;10.17;;;-1.50;98.40;;;;;;4411326;28;658397;-72
2022/02/20 01:56:22;;;;;;;29.37;9.87;;;-1.50;98.30;;;;;;4397953;28;660183;-73
2022/02/20 01:59:11;;;;;;;36.83;12.27;;;-1.50;97.90;;;;;;4411229;28;658086;-73
2022/02/20 02:01:59;;;;;;;34.83;11.97;;;-1.50;97.60;;;;;;4389963;28;658917;-74
2022/02/20 02:04:47;;;;;;;34.67;10.93;;;-1.50;97.30;;;;;;4400583;28;658997;-74
2022/02/20 02:07:35;;;;;;;30.40;9.40;;;-1.50;97.60;;;;;;4409065;28;659454;-72
2022/02/20 02:10:22;;;;;;;29.70;9.17;;;-1.50;97.30;;;;;;4392325;28;659207;-74
2022/02/20 02:13:10;;;;;;;27.30;9.07;;;-1.50;97.20;;;;;;4414365;28;658183;-74
2022/02/20 02:15:59;;;;;;;25.43;8.43;;;-1.50;97.00;;;;;;4390970;28;658578;-74
2022/02/20 02:18:46;;;;;;;23.33;7.55;;;-1.50;97.10;;;;;;4392943;28;657580;-73
2022/02/20 02:21:34;;;;;;;23.73;7.87;;;-1.50;96.80;;;;;;4418442;28;658543;-73
2022/02/20 02:24:23;;;;;;;23.57;7.73;;;-1.50;96.70;;;;;;4393368;28;658363;-74
2022/02/20 02:27:11;;;;;;;23.75;7.78;;;-1.40;96.70;;;;;;4387098;28;657527;-71
2022/02/20 02:29:58;;;;;;;25.67;8.13;;;-1.50;96.50;;;;;;4414457;28;657686;-74
2022/02/20 02:32:46;;;;;;;28.40;8.23;;;-1.50;96.70;;;;;;4398960;28;657422;-72
2022/02/20 02:35:33;;;;;;;27.27;7.60;;;-1.50;96.40;;;;;;4415982;28;658300;-73
2022/02/20 02:38:26;;;;;;;23.63;7.73;;;-1.50;96.20;;;;;;4397394;28;657977;-73
2022/02/20 02:41:15;;;;;;;24.27;6.83;;;-1.50;96.10;;;;;;4391355;28;658341;-73
2022/02/20 02:44:03;;;;;;;22.63;7.10;;;-1.50;96.90;;;;;;4397428;28;657827;-73
2022/02/20 02:46:51;;;;;;;22.40;6.50;;;-1.50;96.70;;;;;;4392444;28;658627;-71
2022/02/20 02:49:38;;;;;;;21.97;7.57;;;-1.50;96.60;;;;;;4418723;28;657980;-74
2022/02/20 02:52:26;;;;;;;31.63;9.37;;;-1.40;96.60;;;;;;4391234;28;657493;-74
2022/02/20 02:55:14;;;;;;;35.63;8.93;;;-1.50;96.30;;;;;;4406944;28;658003;-74
2022/02/20 02:58:02;;;;;;;27.00;8.90;;;-1.40;96.60;;;;;;4406218;28;657512;-73
2022/02/20 03:00:51;;;;;;;30.90;9.30;;;-1.40;96.30;;;;;;4412240;28;657787;-71
2022/02/20 03:03:38;;;;;;;29.77;10.20;;;-1.40;96.00;;;;;;4413463;28;658920;-73
2022/02/20 03:06:26;;;;;;;23.53;8.07;;;-1.40;95.70;;;;;;4391596;28;658815;-73
2022/02/20 03:09:13;;;;;;;29.07;8.17;;;-1.30;95.70;;;;;;4409876;28;657710;-74
2022/02/20 03:12:01;;;;;;;23.47;6.90;;;-1.30;96.20;;;;;;4393434;28;657590;-71
2022/02/20 03:14:50;;;;;;;22.23;7.00;;;-1.30;96.40;;;;;;4411719;28;658123;-73
2022/02/20 03:17:37;;;;;;;21.65;6.25;;;-1.30;96.70;;;;;;4389167;28;658768;-73
2022/02/20 03:20:25;;;;;;;15.27;4.63;;;-1.30;96.20;;;;;;4416000;28;657653;-74
2022/02/20 03:23:12;;;;;;;12.57;3.90;;;-1.00;94.70;;;;;;4386714;28;658650;-73
2022/02/20 03:26:00;;;;;;;12.47;3.67;;;-0.90;92.70;;;;;;4410928;28;658357;-73
2022/02/20 03:28:47;;;;;;;17.00;5.27;;;-0.70;91.00;;;;;;4388599;28;658841;-74
2022/02/20 03:31:37;;;;;;;27.20;7.70;;;-0.60;90.40;;;;;;4404442;28;657560;-72
2022/02/20 03:34:24;;;;;;;37.83;10.30;;;-0.60;90.00;;;;;;4411037;28;656875;-74
2022/02/20 03:37:12;;;;;;;19.90;5.57;;;-0.60;90.20;;;;;;4387005;28;658661;-73
2022/02/20 03:39:59;;;;;;;24.00;7.70;;;-0.60;90.70;;;;;;4409906;28;658115;-74
2022/02/20 03:42:47;;;;;;;24.00;8.10;;;-0.70;91.30;;;;;;4382976;28;657484;-74
2022/02/20 03:45:34;;;;;;;26.13;6.60;;;-0.70;91.30;;;;;;4408454;28;657486;-74
2022/02/20 03:48:23;;;;;;;24.13;6.03;;;-0.70;91.30;;;;;;4386634;28;657519;-73
2022/02/20 03:51:11;;;;;;;18.63;5.70;;;-0.70;90.50;;;;;;4385491;28;657903;-73
2022/02/20 03:53:59;;;;;;;26.73;7.70;;;-0.70;91.20;;;;;;4407474;28;658420;-73
2022/02/20 03:56:46;;;;;;;53.43;11.43;;;-0.70;92.10;;;;;;4382793;28;657675;-73
2022/02/20 03:59:34;;;;;;;59.43;12.73;;;-0.70;91.90;;;;;;4415219;28;659863;-73
2022/02/20 04:02:21;;;;;;;66.73;14.63;;;-0.80;91.70;;;;;;4389383;28;658480;-73
2022/02/20 04:05:11;;;;;;;73.97;16.87;;;-0.80;92.00;;;;;;4406532;28;659607;-73
2022/02/20 04:07:59;;;;;;;66.67;15.47;;;-0.80;92.10;;;;;;4390598;28;660024;-72
2022/02/20 04:10:46;;;;;;;71.43;15.63;;;-0.70;92.10;;;;;;4380174;28;658809;-73
2022/02/20 04:13:34;;;;;;;68.27;16.73;;;-0.70;92.00;;;;;;4407051;28;659473;-73
2022/02/20 04:16:21;;;;;;;58.10;13.93;;;-0.70;92.20;;;;;;4389495;28;659000;-74
2022/02/20 04:19:09;;;;;;;42.87;12.47;;;-0.70;91.80;;;;;;4411229;28;660211;-73
2022/02/20 04:21:58;;;;;;;41.03;10.13;;;-0.70;91.70;;;;;;4391314;28;659070;-73
2022/02/20 04:24:46;;;;;;;42.07;10.47;;;-0.60;91.50;;;;;;4406467;28;658610;-72
2022/02/20 04:27:33;;;;;;;24.27;7.70;;;-0.60;91.50;;;;;;4409828;28;659554;-73
2022/02/20 04:30:21;;;;;;;23.63;7.20;;;-0.60;90.90;;;;;;4394512;28;657676;-73
2022/02/20 04:33:08;;;;;;;28.55;7.18;;;-0.50;91.10;;;;;;4415910;28;658560;-73
2022/02/20 04:35:56;;;;;;;31.77;7.27;;;-0.50;91.60;;;;;;4383266;28;657804;-73
2022/02/20 04:38:45;;;;;;;18.53;4.60;;;-0.40;90.90;;;;;;4416451;28;658570;-73
2022/02/20 04:41:32;;;;;;;14.43;4.23;;;-0.30;90.00;;;;;;4390490;28;658977;-72
2022/02/20 04:44:20;;;;;;;10.87;4.00;;;-0.10;86.40;;;;;;4409375;28;658077;-71
2022/02/20 04:47:08;;;;;;;15.57;4.47;;;0.10;83.80;;;;;;4407952;28;659234;-73
2022/02/20 04:49:56;;;;;;;23.67;5.67;;;0.20;82.50;;;;;;4401834;28;656673;-71
2022/02/20 04:52:43;;;;;;;19.00;5.20;;;0.20;81.50;;;;;;4416101;28;657233;-73
2022/02/20 04:55:32;;;;;;;15.00;4.80;;;0.30;81.80;;;;;;4394823;28;656430;-73
2022/02/20 04:58:20;;;;;;;19.38;4.70;;;0.40;80.30;;;;;;4412151;28;656270;-73
2022/02/20 05:01:07;;;;;;;19.97;5.93;;;0.30;81.40;;;;;;4396579;28;657595;-72
2022/02/20 05:03:54;;;;;;;15.15;4.53;;;0.40;79.70;;;;;;4419838;28;657838;-73
2022/02/20 05:06:42;;;;;;;19.63;5.50;;;0.40;80.70;;;;;;4401195;28;657057;-73
2022/02/20 05:09:30;;;;;;;23.27;6.23;;;0.40;81.00;;;;;;4408921;28;656560;-73
2022/02/20 05:12:19;;;;;;;22.80;6.13;;;0.50;80.80;;;;;;4396641;28;658140;-73
2022/02/20 05:15:07;;;;;;;17.83;5.05;;;0.50;81.60;;;;;;4385759;28;656606;-73
2022/02/20 05:17:55;;;;;;;15.03;3.80;;;0.50;80.50;;;;;;4410037;28;657091;-73
2022/02/20 05:20:43;;;;;;;20.60;4.90;;;0.50;80.30;;;;;;4377460;28;657527;-73
2022/02/20 05:23:31;;;;;;;13.05;4.35;;;0.60;78.90;;;;;;4397119;28;657184;-71
2022/02/20 05:26:18;;;;;;;20.87;5.87;;;0.70;77.90;;;;;;4414454;28;657559;-73
2022/02/20 05:29:07;;;;;;;13.03;4.07;;;0.70;79.00;;;;;;4392221;28;656629;-72
2022/02/20 05:31:54;;;;;;;15.73;4.33;;;0.70;76.90;;;;;;4409781;28;656646;-73
2022/02/20 05:34:42;;;;;;;14.00;4.30;;;0.80;75.70;;;;;;4396652;28;656835;-73
2022/02/20 05:37:29;;;;;;;12.60;4.35;;;0.90;73.90;;;;;;4400634;28;657495;-73
2022/02/20 05:40:18;;;;;;;11.07;4.20;;;0.90;75.00;;;;;;4386092;28;656453;-73
2022/02/20 05:43:06;;;;;;;11.77;3.63;;;0.90;73.20;;;;;;4394001;28;656210;-73
2022/02/20 05:45:55;;;;;;;14.13;3.90;;;1.00;71.50;;;;;;4414481;28;657958;-73
2022/02/20 05:49:21;;;;;;;10.87;3.33;;;1.10;70.40;;;;;;4389274;28;658345;-73
2022/02/20 05:52:09;;;;;;;10.87;2.90;;;1.20;69.10;;;;;;4370174;28;657437;-73
2022/02/20 05:54:56;;;;;;;8.37;2.70;;;1.30;67.70;;;;;;4392894;28;656628;-72
2022/02/20 05:57:45;;;;;;;9.23;2.50;;;1.40;67.70;;;;;;4409778;28;656428;-73
2022/02/20 06:00:33;;;;;;;11.03;2.80;;;1.40;66.80;;;;;;4386374;28;656873;-72
2022/02/20 06:03:22;;;;;;;8.87;2.50;;;1.50;65.80;;;;;;4409893;28;656421;-71
2022/02/20 06:06:10;;;;;;;10.70;2.43;;;1.70;65.00;;;;;;4416044;28;655469;-73
2022/02/20 06:08:57;;;;;;;6.30;2.30;;;1.80;64.40;;;;;;4383724;28;657469;-73
2022/02/20 06:11:44;;;;;;;9.13;2.40;;;1.80;64.20;;;;;;4414514;28;655334;-72
2022/02/20 06:14:32;;;;;;;9.57;2.87;;;1.90;63.80;;;;;;4387600;28;655581;-72
2022/02/20 06:17:19;;;;;;;7.93;2.33;;;2.00;63.60;;;;;;4416565;28;655709;-73
2022/02/20 06:20:09;;;;;;;6.20;2.00;;;2.10;63.30;;;;;;4404557;28;655642;-73
2022/02/20 06:22:57;;;;;;;11.23;2.05;;;2.30;62.50;;;;;;4400407;28;655670;-72
2022/02/20 06:25:44;;;;;;;9.33;2.40;;;2.50;61.70;;;;;;4406382;28;656924;-72
2022/02/20 06:28:32;;;;;;;8.43;2.37;;;2.80;60.50;;;;;;4393423;28;656251;-73
2022/02/20 06:31:19;;;;;;;6.22;1.73;;;2.90;60.10;;;;;;4405883;28;655473;-75
2022/02/20 06:34:07;;;;;;;10.67;3.17;;;3.30;59.10;;;;;;4396696;28;655855;-76
2022/02/20 06:36:56;;;;;;;6.63;2.37;;;3.30;59.10;;;;;;4413054;28;657364;-76
2022/02/20 06:39:45;;;;;;;7.27;2.50;;;3.40;59.70;;;;;;4389749;28;656172;-76
2022/02/20 06:42:32;;;;;;;8.33;2.77;;;3.40;59.80;;;;;;4386632;28;656869;-72
2022/02/20 06:45:20;;;;;;;3.43;1.70;;;3.50;59.10;;;;;;4416675;28;656128;-76
2022/02/20 06:48:07;;;;;;;9.20;2.63;;;3.60;61.40;;;;;;4385000;28;657462;-76
2022/02/20 06:50:55;;;;;;;6.97;2.27;;;3.60;61.40;;;;;;4417014;28;656473;-73
2022/02/20 06:53:44;;;;;;;6.90;1.93;;;3.50;63.50;;;;;;4392931;28;656468;-76
2022/02/20 06:56:32;;;;;;;8.90;1.83;;;3.50;71.40;;;;;;4395739;28;655772;-74
2022/02/20 06:59:19;;;;;;;14.80;2.10;;;3.40;82.30;;;;;;4419027;28;656406;-77
2022/02/20 07:02:07;;;;;;;2.53;1.43;;;3.20;93.80;;;;;;4398575;28;656837;-72
2022/02/20 07:04:54;;;;;;;1.67;0.87;;;2.90;99.60;;;;;;4420688;28;656434;-76
2022/02/20 07:07:42;;;;;;;11.00;1.27;;;2.80;99.90;;;;;;4389999;28;655779;-75
2022/02/20 07:10:31;;;;;;;4.10;1.43;;;2.70;99.90;;;;;;4422732;28;657106;-75
2022/02/20 07:13:18;;;;;;;4.77;1.43;;;2.60;99.90;;;;;;4394015;28;655965;-76
2022/02/20 07:16:06;;;;;;;6.43;2.03;;;2.50;99.90;;;;;;4390539;28;656423;-75
2022/02/20 07:18:55;;;;;;;6.30;1.60;;;2.50;99.90;;;;;;4401604;28;656325;-75
2022/02/20 07:21:43;;;;;;;5.18;1.58;;;2.40;99.90;;;;;;4396801;28;656714;-75
2022/02/20 07:24:31;;;;;;;8.83;2.07;;;2.30;99.90;;;;;;4390539;28;655118;-76
2022/02/20 07:27:20;;;;;;;6.17;1.87;;;2.30;99.90;;;;;;4421906;28;656598;-73
2022/02/20 07:30:08;;;;;;;2.53;1.60;;;2.30;99.90;;;;;;4392990;28;656069;-74
2022/02/20 07:32:56;;;;;;;4.53;1.80;;;2.10;99.90;;;;;;4394983;28;656337;-75
2022/02/20 07:35:44;;;;;;;8.43;2.37;;;2.10;99.90;;;;;;4412742;28;657671;-77
2022/02/20 07:38:31;;;;;;;5.90;2.40;;;2.10;99.90;;;;;;4402917;28;655404;-75
2022/02/20 07:41:19;;;;;;;4.50;2.10;;;2.10;99.90;;;;;;4416852;28;656300;-72
2022/02/20 07:44:08;;;;;;;10.33;3.10;;;2.10;99.90;;;;;;4394300;28;655663;-72
2022/02/20 07:46:56;;;;;;;8.30;3.00;;;2.10;99.90;;;;;;4391420;28;656681;-72
2022/02/20 07:49:43;;;;;;;7.67;3.00;;;2.00;99.90;;;;;;4413193;28;655933;-73
2022/02/20 07:52:32;;;;;;;5.40;1.90;;;2.10;99.90;;;;;;4384058;28;655330;-74
2022/02/20 07:55:19;;;;;;;3.43;1.30;;;2.10;99.90;;;;;;4397440;28;656329;-76
2022/02/20 07:58:10;;;;;;;5.80;2.13;;;2.10;99.90;;;;;;4379201;28;656391;-75
2022/02/20 08:00:59;;;;;;;5.00;2.50;;;2.10;99.90;;;;;;4385042;28;656497;-76
2022/02/20 08:03:46;;;;;;;5.60;3.00;;;2.20;99.90;;;;;;4385116;28;655826;-75
2022/02/20 08:06:34;;;;;;;6.40;3.08;;;2.20;99.90;;;;;;4415047;28;656436;-75
2022/02/20 08:09:21;;;;;;;5.03;2.83;;;2.10;99.90;;;;;;4383730;28;655646;-72
2022/02/20 08:12:09;;;;;;;5.10;2.43;;;2.10;99.90;;;;;;4403055;28;656630;-76
2022/02/20 08:14:57;;;;;;;7.53;3.87;;;2.10;99.90;;;;;;4386345;28;655449;-77
2022/02/20 08:17:46;;;;;;;5.17;2.47;;;2.10;99.90;;;;;;4407624;28;655829;-76
2022/02/20 08:20:34;;;;;;;3.13;1.63;;;2.10;99.90;;;;;;4380576;28;656198;-76
2022/02/20 08:23:21;;;;;;;8.27;3.07;;;2.10;99.90;;;;;;4397402;28;655638;-76
2022/02/20 08:26:09;;;;;;;8.50;3.23;;;2.10;99.90;;;;;;4411717;28;656109;-76
2022/02/20 08:28:56;;;;;;;6.07;2.37;;;2.10;99.90;;;;;;4399727;28;656333;-76
2022/02/20 08:31:44;;;;;;;4.97;3.00;;;2.10;99.90;;;;;;4416683;28;656311;-76
2022/02/20 08:34:33;;;;;;;6.47;2.87;;;2.20;99.90;;;;;;4385510;28;655580;-76
2022/02/20 08:37:21;;;;;;;8.88;3.78;;;2.20;99.90;;;;;;4391019;28;655681;-76
2022/02/20 08:40:09;;;;;;;6.73;3.67;;;2.20;99.90;;;;;;4408364;28;655769;-73
2022/02/20 08:42:57;;;;;;;7.30;4.03;;;2.20;99.90;;;;;;4381024;28;655950;-73
2022/02/20 08:45:47;;;;;;;7.18;3.88;;;2.20;99.90;;;;;;4402261;28;655955;-76
2022/02/20 08:48:36;;;;;;;5.70;2.90;;;2.30;99.90;;;;;;4404799;28;655747;-76
2022/02/20 08:51:25;;;;;;;8.33;4.03;;;2.40;99.90;;;;;;4410357;28;656709;-76
2022/02/20 08:54:13;;;;;;;5.33;2.97;;;2.30;99.90;;;;;;4387167;28;656831;-76
2022/02/20 08:57:04;;;;;;;7.20;3.30;;;2.30;99.90;;;;;;4398521;28;655634;-76
2022/02/20 08:59:52;;;;;;;9.77;4.33;;;2.30;99.90;;;;;;4387832;28;655590;-77
2022/02/20 09:02:40;;;;;;;11.07;4.53;;;2.30;99.90;;;;;;4475036;28;655980;-66
2022/02/20 09:05:28;;;;;;;16.67;6.57;;;2.20;99.90;;;;;;4376978;28;657384;-67
2022/02/20 09:08:17;;;;;;;10.53;5.93;;;2.20;99.90;;;;;;4397658;28;656574;-67
2022/02/20 09:11:05;;;;;;;12.77;6.63;;;2.20;99.90;;;;;;4416611;28;656989;-68
2022/02/20 09:13:52;;;;;;;12.57;6.67;;;2.20;99.90;;;;;;4396671;28;657774;-68
2022/02/20 09:16:40;;;;;;;9.30;4.90;;;2.20;99.90;;;;;;4425617;28;656851;-67
2022/02/20 09:19:27;;;;;;;12.33;5.20;;;2.20;99.90;;;;;;4400863;28;656573;-68
2022/02/20 09:22:16;;;;;;;7.80;4.17;;;2.20;99.90;;;;;;4412727;28;656721;-68
2022/02/20 09:25:06;;;;;;;7.67;3.63;;;2.10;99.90;;;;;;4392976;28;656876;-67
2022/02/20 09:27:53;;;;;;;16.13;6.57;;;2.10;99.90;;;;;;4398568;28;656135;-68
2022/02/20 09:30:41;;;;;;;10.53;5.03;;;2.10;99.90;;;;;;4406686;28;656211;-68
2022/02/20 09:33:29;;;;;;;13.83;6.47;;;2.10;99.90;;;;;;4426316;28;657672;-68
2022/02/20 09:36:16;;;;;;;9.30;5.13;;;2.10;99.90;;;;;;4400561;28;657087;-68
2022/02/20 09:39:04;;;;;;;11.20;4.20;;;2.10;99.90;;;;;;4419219;28;655904;-68
2022/02/20 09:41:53;;;;;;;10.53;4.80;;;2.10;99.90;;;;;;4403279;28;656479;-68
2022/02/20 09:44:41;;;;;;;11.25;5.15;;;2.20;99.90;;;;;;4392224;28;656707;-71
2022/02/20 09:47:29;;;;;;;18.30;6.70;;;2.30;99.90;;;;;;4424887;28;658010;-72
2022/02/20 09:50:17;;;;;;;13.13;5.97;;;2.40;99.90;;;;;;4397723;28;657134;-72
2022/02/20 09:53:05;;;;;;;12.60;5.47;;;2.50;99.90;;;;;;4418988;28;657147;-73
2022/02/20 09:55:52;;;;;;;11.00;4.73;;;2.60;99.90;;;;;;4399027;28;657677;-71
2022/02/20 09:58:41;;;;;;;13.20;6.10;;;2.80;99.90;;;;;;4415650;28;656601;-72
2022/02/20 10:01:29;;;;;;;14.90;6.70;;;2.90;99.90;;;;;;4392135;28;658580;-72
2022/02/20 10:04:17;;;;;;;13.48;5.63;;;2.90;99.90;;;;;;4400806;28;656992;-71
2022/02/20 10:07:05;;;;;;;14.20;5.50;;;3.00;1.00;;;;;;4415427;28;656487;-71
2022/02/20 10:09:53;;;;;;;14.77;6.10;;;3.10;1.00;;;;;;4389505;28;656523;-73
2022/02/20 10:12:41;;;;;;;13.83;6.00;;;3.20;1.00;;;;;;4401344;28;655469;-73
2022/02/20 10:15:31;;;;;;;12.77;5.40;;;3.20;99.90;;;;;;4417171;28;656200;-72
2022/02/20 10:18:20;;;;;;;10.33;4.97;;;3.30;99.90;;;;;;4391558;28;657779;-73
2022/02/20 10:21:10;;;;;;;5.60;2.57;;;3.40;99.90;;;;;;4396118;28;657613;-74
2022/02/20 10:24:05;;;;;;;13.20;4.97;;;3.40;99.90;;;;;;4382969;28;656187;-75
2022/02/20 10:26:52;;;;;;;4.90;2.60;;;3.50;99.90;;;;;;4384108;28;656609;-75
2022/02/20 10:29:41;;;;;;;9.17;4.33;;;3.50;99.90;;;;;;4403273;28;655165;-73
2022/02/20 10:32:32;;;;;;;11.43;4.03;;;3.60;99.90;;;;;;4402233;28;656228;-73
2022/02/20 10:35:20;;;;;;;6.47;3.40;;;3.70;99.90;;;;;;4380416;28;658296;-73
2022/02/20 10:38:08;;;;;;;9.93;4.07;;;3.70;99.90;;;;;;4377994;28;656714;-72
2022/02/20 10:40:58;;;;;;;7.93;3.23;;;3.80;99.90;;;;;;4390435;28;655812;-73
2022/02/20 10:43:47;;;;;;;5.97;3.22;;;3.80;99.90;;;;;;4395540;28;656491;-73
2022/02/20 10:46:35;;;;;;;11.77;4.47;;;3.80;99.90;;;;;;4407737;28;655941;-73
2022/02/20 10:49:25;;;;;;;8.63;4.80;;;3.90;99.90;;;;;;4388874;28;657882;-73
2022/02/20 10:52:22;;;;;;;10.05;4.45;;;3.90;99.90;;;;;;4387687;28;656576;-73
2022/02/20 10:55:11;;;;;;;9.40;4.10;;;4.00;99.90;;;;;;4382663;28;656900;-72
2022/02/20 10:57:58;;;;;;;8.40;3.73;;;4.00;99.90;;;;;;4391572;28;656308;-73
2022/02/20 11:00:50;;;;;;;8.33;4.43;;;4.10;99.90;;;;;;4383617;28;655618;-73
2022/02/20 11:03:41;;;;;;;13.57;4.57;;;4.20;99.90;;;;;;4380357;28;656406;-73
2022/02/20 11:06:30;;;;;;;9.57;3.50;;;4.30;99.90;;;;;;4398988;28;657964;-72
2022/02/20 11:09:17;;;;;;;7.30;3.80;;;4.30;99.90;;;;;;4395532;28;656357;-73
2022/02/20 11:12:06;;;;;;;11.93;4.53;;;4.40;99.90;;;;;;4413634;28;655301;-73
2022/02/20 11:14:54;;;;;;;8.32;3.72;;;4.50;99.90;;;;;;4392195;28;657926;-73
2022/02/20 11:17:41;;;;;;;5.93;2.87;;;4.60;99.90;;;;;;4378617;28;656248;-72
2022/02/20 11:20:30;;;;;;;4.47;2.10;;;4.70;99.90;;;;;;4400726;28;656691;-73
2022/02/20 11:23:23;;;;;;;5.07;2.47;;;4.80;99.90;;;;;;4380721;28;656341;-73
2022/02/20 11:26:11;;;;;;;6.43;2.87;;;4.90;99.90;;;;;;4361933;28;656464;-73
2022/02/20 11:28:59;;;;;;;7.17;2.50;;;5.00;99.90;;;;;;4399777;28;655660;-73
2022/02/20 11:31:46;;;;;;;7.27;2.30;;;5.10;99.90;;;;;;4388262;28;655596;-73
2022/02/20 11:34:35;;;;;;;4.60;2.20;;;5.30;99.90;;;;;;4415616;28;657106;-74
2022/02/20 11:37:22;;;;;;;7.33;2.67;;;5.30;99.90;;;;;;4396288;28;657015;-73
2022/02/20 11:40:14;;;;;;;4.90;2.13;;;5.30;99.90;;;;;;4409575;28;655869;-73
2022/02/20 11:43:10;;;;;;;6.07;2.17;;;5.30;99.90;;;;;;4390719;28;655453;-73
2022/02/20 11:46:13;;;;;;;6.57;2.53;;;5.30;99.90;;;;;;4371593;28;656404;-72
2022/02/20 11:49:26;;;;;;;4.40;2.13;;;5.30;99.90;;;;;;4368138;28;655882;-72
2022/02/20 11:52:14;;;;;;;7.67;2.70;;;5.30;99.90;;;;;;4377195;28;655784;-74
2022/02/20 11:55:01;;;;;;;5.07;2.83;;;5.30;99.90;;;;;;4380556;28;655817;-73
2022/02/20 11:57:51;;;;;;;4.83;2.03;;;5.40;99.90;;;;;;4399870;28;656426;-74
2022/02/20 12:00:38;;;;;;;7.50;2.40;;;5.50;99.90;;;;;;4368587;28;656590;-74
2022/02/20 12:03:26;;;;;;;3.10;2.20;;;5.50;99.90;;;;;;4381314;28;655739;-73
2022/02/20 12:06:24;;;;;;;10.33;3.00;;;5.50;99.90;;;;;;4403340;28;656280;-73
2022/02/20 12:09:27;;;;;;;6.77;2.50;;;5.60;99.90;;;;;;4379141;28;657176;-72
2022/02/20 12:12:31;;;;;;;7.67;3.00;;;5.70;99.90;;;;;;4376157;28;655779;-72
2022/02/20 12:15:31;;;;;;;5.67;2.80;;;5.80;99.90;;;;;;4373164;28;656114;-73
2022/02/20 12:18:30;;;;;;;6.23;3.00;;;5.90;99.90;;;;;;4376901;28;656314;-73
2022/02/20 12:21:18;;;;;;;6.82;3.00;;;6.00;99.90;;;;;;4381109;28;655469;-72
2022/02/20 12:24:16;;;;;;;5.33;2.57;;;6.10;99.90;;;;;;4399924;28;655637;-73
2022/02/20 12:27:05;;;;;;;4.37;2.07;;;6.10;99.90;;;;;;4376138;28;655968;-73
2022/02/20 12:29:54;;;;;;;5.90;2.47;;;6.10;99.50;;;;;;4387553;28;657555;-73
2022/02/20 12:32:43;;;;;;;6.00;2.80;;;6.20;99.90;;;;;;4394542;28;655619;-72
2022/02/20 12:35:31;;;;;;;11.50;2.73;;;6.30;99.90;;;;;;4380306;28;655645;-72
2022/02/20 12:38:19;;;;;;;6.77;2.07;;;6.40;96.90;;;;;;4397863;28;657634;-75
2022/02/20 12:41:12;;;;;;;9.77;3.47;;;6.50;95.80;;;;;;4382159;28;655287;-74
2022/02/20 12:44:00;;;;;;;4.37;2.23;;;6.60;96.10;;;;;;4384589;28;655624;-76
2022/02/20 12:46:47;;;;;;;6.07;2.50;;;6.80;95.10;;;;;;4376615;28;656272;-74
2022/02/20 12:49:40;;;;;;;6.60;2.60;;;6.90;92.40;;;;;;4399386;28;655573;-74
2022/02/20 12:52:32;;;;;;;6.93;2.47;;;6.90;91.00;;;;;;4352626;28;655761;-74
2022/02/20 12:55:21;;;;;;;5.00;2.13;;;6.80;91.00;;;;;;4375729;28;656221;-74
2022/02/20 12:58:10;;;;;;;5.67;2.23;;;6.80;91.10;;;;;;4385494;28;655407;-74
2022/02/20 13:00:59;;;;;;;7.37;2.60;;;6.80;90.10;;;;;;4386646;28;655790;-74
2022/02/20 13:03:49;;;;;;;8.97;2.43;;;6.80;91.50;;;;;;4375922;28;656275;-74
2022/02/20 13:06:38;;;;;;;5.97;2.50;;;6.80;91.00;;;;;;4391351;28;655434;-74
2022/02/20 13:09:26;;;;;;;6.20;1.67;;;6.80;90.40;;;;;;4395017;28;655779;-75
2022/02/20 13:12:16;;;;;;;6.00;2.10;;;6.80;87.20;;;;;;4397456;28;655623;-73
2022/02/20 13:15:06;;;;;;;10.80;2.30;;;6.80;85.00;;;;;;4375029;28;656321;-73
2022/02/20 13:18:02;;;;;;;3.90;1.73;;;6.90;85.60;;;;;;4373396;28;657755;-75
2022/02/20 13:20:51;;;;;;;6.93;1.83;;;7.00;82.80;;;;;;4374343;28;655784;-74
2022/02/20 13:23:40;;;;;;;6.17;1.80;;;7.00;81.50;;;;;;4374223;28;656129;-75
2022/02/20 13:26:28;;;;;;;5.57;2.17;;;7.20;80.80;;;;;;4376381;28;656033;-74
2022/02/20 13:29:16;;;;;;;5.23;2.17;;;7.10;79.70;;;;;;4378171;28;656449;-74
2022/02/20 13:32:04;;;;;;;5.77;2.50;;;7.20;78.90;;;;;;4401016;28;656026;-73
2022/02/20 13:34:59;;;;;;;4.87;2.40;;;7.30;79.90;;;;;;4379105;28;655483;-74
2022/02/20 13:37:47;;;;;;;4.53;2.00;;;7.60;74.50;;;;;;4378365;28;656260;-74
2022/02/20 13:40:39;;;;;;;8.80;2.37;;;8.10;72.60;;;;;;4405326;28;655866;-74
2022/02/20 13:43:45;;;;;;;4.33;2.03;;;8.20;71.90;;;;;;4358992;28;655890;-73
2022/02/20 13:46:34;;;;;;;6.63;2.00;;;8.20;69.10;;;;;;4352464;28;656613;-73
2022/02/20 13:49:24;;;;;;;5.93;1.60;;;8.20;68.70;;;;;;4373895;28;655829;-74
2022/02/20 13:52:12;;;;;;;7.43;2.10;;;8.20;68.60;;;;;;4376269;28;655701;-74
2022/02/20 13:55:00;;;;;;;4.38;1.38;;;7.90;68.10;;;;;;4396835;28;656269;-74
2022/02/20 13:57:49;;;;;;;5.87;2.27;;;7.60;69.20;;;;;;4386741;28;657119;-73
2022/02/20 14:00:38;;;;;;;6.20;2.07;;;7.50;70.50;;;;;;4374350;28;655456;-73
2022/02/20 14:03:26;;;;;;;4.73;2.00;;;7.40;70.50;;;;;;4387454;28;655607;-72
2022/02/20 14:06:15;;;;;;;5.37;2.00;;;7.40;71.40;;;;;;4400568;28;656267;-74
2022/02/20 14:09:03;;;;;;;7.10;2.07;;;7.50;72.30;;;;;;4374377;28;657328;-74
2022/02/20 14:11:50;;;;;;;5.80;2.17;;;7.60;72.00;;;;;;4378663;28;655653;-72
2022/02/20 14:14:40;;;;;;;4.17;1.77;;;7.90;70.70;;;;;;4397239;28;656029;-73
2022/02/20 14:17:51;;;;;;;3.67;1.80;;;8.40;66.20;;;;;;4374696;28;656664;-72
2022/02/20 14:20:48;;;;;;;6.00;2.43;;;8.00;66.50;;;;;;4367949;28;656331;-73
2022/02/20 14:23:36;;;;;;;4.30;1.67;;;8.60;67.90;;;;;;4387541;28;655529;-72
2022/02/20 14:26:25;;;;;;;6.03;2.23;;;9.60;60.20;;;;;;4396444;28;656469;-73